Time,TemperatureF,DewpointF,PressureIn,WindDirection,WindDirectionDegrees,WindSpeedMPH,WindSpeedGustMPH,Humidity,HourlyPrecipIn,Conditions,Clouds,dailyrainin,SoftwareType,DateUTC
2013-03-04 03:30:00,22.7,16.0,30.08,WSW,252,4.0,6.0,75,0.00,,---,0.00,VWS V14.01,2013-03-04 08:30:00,
2013-03-04 03:40:00,22.7,15.7,30.08,SW,221,2.0,6.0,74,0.00,,---,0.00,VWS V14.01,2013-03-04 08:40:00,
2013-03-04 03:50:00,22.7,15.7,30.08,WSW,242,2.0,4.0,74,0.00,,---,0.00,VWS V14.01,2013-03-04 08:50:00,
2013-03-04 04:00:00,22.7,15.7,30.09,WSW,246,0.0,4.0,74,0.00,,---,0.00,VWS V14.01,2013-03-04 09:00:00,
2013-03-04 04:10:00,22.8,15.5,30.09,NNW,344,0.0,6.0,73,0.00,,---,0.00,VWS V14.01,2013-03-04 09:10:00,
2013-03-04 04:20:00,22.7,15.4,30.09,WNW,286,1.0,3.0,73,0.00,,---,0.00,VWS V14.01,2013-03-04 09:20:00,
2013-03-04 04:22:00,22.7,16.3,30.07,SW,236,0.0,0.0,76,0.00,,---,0.00,VWS V14.01,2013-03-04 09:22:00,
2013-03-04 04:23:00,22.7,16.3,30.07,WSW,245,2.0,4.0,76,0.00,,---,0.00,VWS V14.01,2013-03-04 09:23:00,
2013-03-04 04:28:00,22.7,16.0,30.08,West,278,0.0,6.0,75,0.00,,---,0.00,VWS V14.01,2013-03-04 09:28:00,
2013-03-04 04:30:00,22.8,15.8,30.10,ESE,113,1.0,5.0,74,0.00,,---,0.00,VWS V14.01,2013-03-04 09:30:00,
2013-03-04 04:33:00,22.7,16.0,30.08,WNW,291,0.0,4.0,75,0.00,,---,0.00,VWS V14.01,2013-03-04 09:33:00,
2013-03-04 04:38:00,22.7,16.0,30.08,SW,232,1.0,6.0,75,0.00,,---,0.00,VWS V14.01,2013-03-04 09:38:00,
2013-03-04 04:40:00,22.7,15.7,30.10,WNW,303,3.0,6.0,74,0.00,,---,0.00,VWS V14.01,2013-03-04 09:40:00,
2013-03-04 04:43:00,22.7,16.0,30.08,East,101,0.0,3.0,75,0.00,,---,0.00,VWS V14.01,2013-03-04 09:43:00,
2013-03-04 04:48:00,22.7,15.7,30.08,West,264,1.0,4.0,74,0.00,,---,0.00,VWS V14.01,2013-03-04 09:48:00,
2013-03-04 04:50:00,22.7,16.0,30.10,East,94,0.0,8.0,75,0.00,,---,0.00,VWS V14.01,2013-03-04 09:50:00,
2013-03-04 04:53:00,22.7,15.7,30.08,SW,227,0.0,3.0,74,0.00,,---,0.00,VWS V14.01,2013-03-04 09:53:00,
2013-03-04 04:58:00,22.7,15.7,30.09,WNW,283,0.0,4.0,74,0.00,,---,0.00,VWS V14.01,2013-03-04 09:58:00,
2013-03-04 05:00:00,22.6,15.9,30.10,NNW,334,1.0,5.0,75,0.00,,---,0.00,VWS V14.01,2013-03-04 10:00:00,
2013-03-04 05:03:00,22.7,15.4,30.09,SE,130,0.0,6.0,73,0.00,,---,0.00,VWS V14.01,2013-03-04 10:03:00,
2013-03-04 05:08:00,22.8,15.8,30.09,NNE,13,0.0,6.0,74,0.00,,---,0.00,VWS V14.01,2013-03-04 10:08:00,
2013-03-04 05:10:00,22.5,16.1,30.10,SE,144,0.0,5.0,76,0.00,,---,0.00,VWS V14.01,2013-03-04 10:10:00,
2013-03-04 05:13:00,22.8,15.5,30.09,SSE,150,0.0,1.0,73,0.00,,---,0.00,VWS V14.01,2013-03-04 10:13:00,
2013-03-04 05:18:00,22.8,15.5,30.09,SW,222,0.0,3.0,73,0.00,,---,0.00,VWS V14.01,2013-03-04 10:18:00,
2013-03-04 05:20:00,22.5,16.1,30.11,SW,215,2.0,8.0,76,0.00,,---,0.00,VWS V14.01,2013-03-04 10:20:00,
2013-03-04 05:23:00,22.8,15.5,30.09,East,89,2.0,5.0,73,0.00,,---,0.00,VWS V14.01,2013-03-04 10:23:00,
2013-03-04 05:28:00,22.8,15.8,30.10,ESE,105,0.0,5.0,74,0.00,,---,0.00,VWS V14.01,2013-03-04 10:28:00,
2013-03-04 05:30:00,22.4,16.0,30.11,WNW,301,4.0,10.0,76,0.00,,---,0.00,VWS V14.01,2013-03-04 10:30:00,
2013-03-04 05:33:00,22.8,15.8,30.10,WSW,257,2.0,4.0,74,0.00,,---,0.00,VWS V14.01,2013-03-04 10:33:00,
2013-03-04 05:38:00,22.7,15.7,30.10,West,272,0.0,6.0,74,0.00,,---,0.00,VWS V14.01,2013-03-04 10:38:00,
2013-03-04 05:40:00,22.4,14.8,30.12,NW,311,5.0,10.0,72,0.00,,---,0.00,VWS V14.01,2013-03-04 10:40:00,
2013-03-04 05:43:00,22.7,16.0,30.10,SE,137,0.0,8.0,75,0.00,,---,0.00,VWS V14.01,2013-03-04 10:43:00,
2013-03-04 05:48:00,22.7,16.0,30.10,WSW,248,1.0,8.0,75,0.00,,---,0.00,VWS V14.01,2013-03-04 10:48:00,
2013-03-04 05:50:00,22.2,14.2,30.12,WNW,302,4.0,13.0,71,0.00,,---,0.00,VWS V14.01,2013-03-04 10:50:00,
2013-03-04 05:53:00,22.6,16.2,30.10,NE,42,0.0,5.0,76,0.00,,---,0.00,VWS V14.01,2013-03-04 10:53:00,
2013-03-04 05:58:00,22.6,16.2,30.10,WSW,238,1.0,5.0,76,0.00,,---,0.00,VWS V14.01,2013-03-04 10:58:00,
2013-03-04 06:00:00,21.9,13.9,30.12,West,265,0.0,9.0,71,0.00,,---,0.00,VWS V14.01,2013-03-04 11:00:00,
2013-03-04 06:03:00,22.6,16.2,30.10,NNE,22,0.0,3.0,76,0.00,,---,0.00,VWS V14.01,2013-03-04 11:03:00,
2013-03-04 06:08:00,22.6,16.2,30.10,SW,214,0.0,5.0,76,0.00,,---,0.00,VWS V14.01,2013-03-04 11:08:00,
2013-03-04 06:10:00,21.7,13.8,30.13,ESE,123,1.0,10.0,71,0.00,,---,0.00,VWS V14.01,2013-03-04 11:10:00,
2013-03-04 06:13:00,22.5,16.4,30.10,ESE,113,1.0,5.0,77,0.00,,---,0.00,VWS V14.01,2013-03-04 11:13:00,
2013-03-04 06:18:00,22.5,16.1,30.11,SE,134,0.0,8.0,76,0.00,,---,0.00,VWS V14.01,2013-03-04 11:18:00,
2013-03-04 06:20:00,21.6,14.0,30.14,WNW,295,1.0,6.0,72,0.00,,---,0.00,VWS V14.01,2013-03-04 11:20:00,
2013-03-04 06:23:00,22.5,16.1,30.11,WNW,290,7.0,10.0,76,0.00,,---,0.00,VWS V14.01,2013-03-04 11:23:00,
2013-03-04 06:28:00,22.4,16.0,30.11,NNE,13,1.0,10.0,76,0.00,,---,0.00,VWS V14.01,2013-03-04 11:28:00,
2013-03-04 06:30:00,21.5,13.9,30.14,SE,126,1.0,2.0,72,0.00,,---,0.00,VWS V14.01,2013-03-04 11:30:00,
2013-03-04 06:33:00,22.4,15.7,30.11,SW,222,4.0,10.0,75,0.00,,---,0.00,VWS V14.01,2013-03-04 11:33:00,
2013-03-04 06:38:00,22.4,15.1,30.12,SSW,193,5.0,10.0,73,0.00,,---,0.00,VWS V14.01,2013-03-04 11:38:00,
2013-03-04 06:40:00,21.8,14.2,30.14,SE,145,0.0,4.0,72,0.00,,---,0.00,VWS V14.01,2013-03-04 11:40:00,
2013-03-04 06:43:00,22.3,14.3,30.12,NW,311,3.0,13.0,71,0.00,,---,0.00,VWS V14.01,2013-03-04 11:43:00,
2013-03-04 06:48:00,22.2,14.2,30.12,NW,305,6.0,13.0,71,0.00,,---,0.00,VWS V14.01,2013-03-04 11:48:00,
2013-03-04 06:50:00,22.1,14.5,30.15,WSW,242,0.0,6.0,72,0.00,,---,0.00,VWS V14.01,2013-03-04 11:50:00,
2013-03-04 06:53:00,22.1,14.1,30.12,NNW,346,3.0,8.0,71,0.00,,---,0.00,VWS V14.01,2013-03-04 11:53:00,
2013-03-04 06:58:00,21.9,14.0,30.13,NW,319,4.0,9.0,71,0.00,,---,0.00,VWS V14.01,2013-03-04 11:58:00,
2013-03-04 07:00:00,22.5,14.5,30.15,ENE,65,0.0,4.0,71,0.00,,---,0.00,VWS V14.01,2013-03-04 12:00:00,
2013-03-04 07:03:00,21.7,13.8,30.13,NW,318,2.0,7.0,71,0.00,,---,0.00,VWS V14.01,2013-03-04 12:03:00,
2013-03-04 07:08:00,21.7,13.8,30.13,NW,306,7.0,10.0,71,0.00,,---,0.00,VWS V14.01,2013-03-04 12:08:00,
2013-03-04 07:10:00,22.8,14.8,30.15,West,265,2.0,6.0,71,0.00,,---,0.00,VWS V14.01,2013-03-04 12:10:00,
2013-03-04 07:13:00,21.6,13.7,30.14,NW,309,1.0,4.0,71,0.00,,---,0.00,VWS V14.01,2013-03-04 12:13:00,
2013-03-04 07:18:00,21.6,14.0,30.14,NW,313,2.0,6.0,72,0.00,,---,0.00,VWS V14.01,2013-03-04 12:18:00,
2013-03-04 07:20:00,23.1,14.8,30.15,SSE,164,0.0,7.0,70,0.00,,---,0.00,VWS V14.01,2013-03-04 12:20:00,
2013-03-04 07:23:00,21.5,13.9,30.14,ENE,57,0.0,2.0,72,0.00,,---,0.00,VWS V14.01,2013-03-04 12:23:00,
2013-03-04 07:28:00,21.5,13.9,30.14,ESE,103,0.0,2.0,72,0.00,,---,0.00,VWS V14.01,2013-03-04 12:28:00,
2013-03-04 07:30:00,23.4,15.1,30.15,NW,315,4.0,6.0,70,0.00,,---,0.00,VWS V14.01,2013-03-04 12:30:00,
2013-03-04 07:33:00,21.6,14.0,30.14,ESE,113,0.0,1.0,72,0.00,,---,0.00,VWS V14.01,2013-03-04 12:33:00,
2013-03-04 07:38:00,21.7,14.1,30.14,SE,134,0.0,4.0,72,0.00,,---,0.00,VWS V14.01,2013-03-04 12:38:00,
2013-03-04 07:40:00,23.6,15.3,30.15,West,271,2.0,8.0,70,0.00,,---,0.00,VWS V14.01,2013-03-04 12:40:00,
2013-03-04 07:43:00,21.9,14.3,30.15,West,269,2.0,5.0,72,0.00,,---,0.00,VWS V14.01,2013-03-04 12:43:00,
2013-03-04 07:48:00,22.1,14.5,30.15,SW,236,0.0,6.0,72,0.00,,---,0.00,VWS V14.01,2013-03-04 12:48:00,
2013-03-04 07:50:00,24.2,16.2,30.15,East,96,2.0,6.0,71,0.00,,---,0.00,VWS V14.01,2013-03-04 12:50:00,
2013-03-04 07:53:00,22.3,14.7,30.15,NNE,23,0.0,1.0,72,0.00,,---,0.00,VWS V14.01,2013-03-04 12:53:00,
2013-03-04 07:58:00,22.4,14.4,30.15,WSW,252,1.0,4.0,71,0.00,,---,0.00,VWS V14.01,2013-03-04 12:58:00,
2013-03-04 08:00:00,24.5,16.5,30.15,WSW,250,5.0,7.0,71,0.00,,---,0.00,VWS V14.01,2013-03-04 13:00:00,
2013-03-04 08:03:00,22.6,14.9,30.15,SE,144,1.0,4.0,72,0.00,,---,0.00,VWS V14.01,2013-03-04 13:03:00,
2013-03-04 08:08:00,22.8,14.8,30.15,WNW,288,3.0,4.0,71,0.00,,---,0.00,VWS V14.01,2013-03-04 13:08:00,
2013-03-04 08:10:00,24.5,16.8,30.16,SSW,199,2.0,7.0,72,0.00,,---,0.00,VWS V14.01,2013-03-04 13:10:00,
2013-03-04 08:13:00,23.0,15.0,30.15,East,93,0.0,3.0,71,0.00,,---,0.00,VWS V14.01,2013-03-04 13:13:00,
2013-03-04 08:18:00,23.1,14.8,30.15,NW,308,4.0,7.0,70,0.00,,---,0.00,VWS V14.01,2013-03-04 13:18:00,
2013-03-04 08:20:00,24.5,17.4,30.16,WSW,239,2.0,6.0,74,0.00,,---,0.00,VWS V14.01,2013-03-04 13:20:00,
2013-03-04 08:23:00,23.2,14.9,30.15,WSW,252,2.0,6.0,70,0.00,,---,0.00,VWS V14.01,2013-03-04 13:23:00,
2013-03-04 08:28:00,23.4,15.1,30.15,SW,236,0.0,6.0,70,0.00,,---,0.00,VWS V14.01,2013-03-04 13:28:00,
2013-03-04 08:30:00,24.8,17.1,30.16,WSW,254,0.0,8.0,72,0.00,,---,0.00,VWS V14.01,2013-03-04 13:30:00,
2013-03-04 08:33:00,23.5,15.2,30.15,West,277,2.0,8.0,70,0.00,,---,0.00,VWS V14.01,2013-03-04 13:33:00,
2013-03-04 08:38:00,23.6,15.3,30.15,NNE,13,0.0,8.0,70,0.00,,---,0.00,VWS V14.01,2013-03-04 13:38:00,
2013-03-04 08:40:00,25.2,16.8,30.16,East,81,0.0,4.0,70,0.00,,---,0.00,VWS V14.01,2013-03-04 13:40:00,
2013-03-04 08:43:00,23.9,15.6,30.15,SSE,155,0.0,6.0,70,0.00,,---,0.00,VWS V14.01,2013-03-04 13:43:00,
2013-03-04 08:48:00,24.2,15.8,30.15,SE,137,1.0,6.0,70,0.00,,---,0.00,VWS V14.01,2013-03-04 13:48:00,
2013-03-04 08:50:00,25.4,17.3,30.16,East,86,1.0,4.0,71,0.00,,---,0.00,VWS V14.01,2013-03-04 13:50:00,
2013-03-04 08:53:00,24.2,16.2,30.15,East,82,1.0,7.0,71,0.00,,---,0.00,VWS V14.01,2013-03-04 13:53:00,
2013-03-04 08:58:00,24.5,16.5,30.15,West,280,1.0,7.0,71,0.00,,---,0.00,VWS V14.01,2013-03-04 13:58:00,
2013-03-04 09:00:00,25.4,16.7,30.16,SE,134,2.0,8.0,69,0.00,,---,0.00,VWS V14.01,2013-03-04 14:00:00,
2013-03-04 09:03:00,24.5,16.8,30.16,South,183,0.0,7.0,72,0.00,,---,0.00,VWS V14.01,2013-03-04 14:03:00,
2013-03-04 09:08:00,24.5,16.8,30.16,West,280,0.0,7.0,72,0.00,,---,0.00,VWS V14.01,2013-03-04 14:08:00,
2013-03-04 09:10:00,25.6,16.5,30.16,SE,127,1.0,7.0,68,0.00,,---,0.00,VWS V14.01,2013-03-04 14:10:00,
2013-03-04 09:13:00,24.4,17.0,30.16,West,279,0.0,6.0,73,0.00,,---,0.00,VWS V14.01,2013-03-04 14:13:00,
2013-03-04 09:19:00,24.5,17.4,30.16,West,269,0.0,6.0,74,0.00,,---,0.00,VWS V14.01,2013-03-04 14:19:00,
2013-03-04 09:20:00,25.6,16.2,30.16,SW,233,3.0,13.0,67,0.00,,---,0.00,VWS V14.01,2013-03-04 14:20:00,
2013-03-04 09:24:00,24.8,17.7,30.16,East,88,3.0,7.0,74,0.00,,---,0.00,VWS V14.01,2013-03-04 14:24:00,
2013-03-04 09:29:00,24.8,17.1,30.16,West,265,4.0,8.0,72,0.00,,---,0.00,VWS V14.01,2013-03-04 14:29:00,
2013-03-04 09:30:00,26.0,16.2,30.16,NE,53,2.0,7.0,66,0.00,,---,0.00,VWS V14.01,2013-03-04 14:30:00,
2013-03-04 09:34:00,25.0,17.3,30.16,WNW,287,0.0,4.0,72,0.00,,---,0.00,VWS V14.01,2013-03-04 14:34:00,
2013-03-04 09:39:00,25.2,16.8,30.16,WNW,286,3.0,4.0,70,0.00,,---,0.00,VWS V14.01,2013-03-04 14:39:00,
2013-03-04 09:40:00,26.4,16.9,30.15,ESE,123,0.0,8.0,67,0.00,,---,0.00,VWS V14.01,2013-03-04 14:40:00,
2013-03-04 09:44:00,25.3,16.9,30.16,ENE,59,1.0,4.0,70,0.00,,---,0.00,VWS V14.01,2013-03-04 14:44:00,
2013-03-04 09:49:00,25.5,17.4,30.16,East,89,2.0,4.0,71,0.00,,---,0.00,VWS V14.01,2013-03-04 14:49:00,
2013-03-04 09:50:00,27.0,17.2,30.15,ENE,78,0.0,5.0,66,0.00,,---,0.00,VWS V14.01,2013-03-04 14:50:00,
2013-03-04 09:54:00,25.4,17.0,30.16,NNE,24,4.0,8.0,70,0.00,,---,0.00,VWS V14.01,2013-03-04 14:54:00,
2013-03-04 09:59:00,25.4,16.7,30.16,South,171,4.0,8.0,69,0.00,,---,0.00,VWS V14.01,2013-03-04 14:59:00,
2013-03-04 10:00:00,27.5,16.9,30.15,NE,36,1.0,7.0,64,0.00,,---,0.00,VWS V14.01,2013-03-04 15:00:00,
2013-03-04 10:04:00,25.4,16.7,30.16,SW,215,4.0,7.0,69,0.00,,---,0.00,VWS V14.01,2013-03-04 15:04:00,
2013-03-04 10:09:00,25.6,16.5,30.16,ENE,59,0.0,7.0,68,0.00,,---,0.00,VWS V14.01,2013-03-04 15:09:00,
2013-03-04 10:10:00,27.8,16.9,30.15,WSW,240,3.0,6.0,63,0.00,,---,0.00,VWS V14.01,2013-03-04 15:10:00,
2013-03-04 10:14:00,25.6,16.5,30.16,WSW,239,2.0,8.0,68,0.00,,---,0.00,VWS V14.01,2013-03-04 15:14:00,
2013-03-04 10:19:00,25.6,16.2,30.16,South,173,1.0,13.0,67,0.00,,---,0.00,VWS V14.01,2013-03-04 15:19:00,
2013-03-04 10:20:00,28.3,17.0,30.15,WSW,253,10.0,11.0,62,0.00,,---,0.00,VWS V14.01,2013-03-04 15:20:00,
2013-03-04 10:24:00,25.9,16.8,30.16,WSW,243,5.0,5.0,68,0.00,,---,0.00,VWS V14.01,2013-03-04 15:24:00,
2013-03-04 10:29:00,26.0,16.6,30.16,NE,36,4.0,7.0,67,0.00,,---,0.00,VWS V14.01,2013-03-04 15:29:00,
2013-03-04 10:30:00,29.0,17.6,30.14,SW,226,1.0,11.0,62,0.00,,---,0.00,VWS V14.01,2013-03-04 15:30:00,
2013-03-04 10:34:00,26.2,16.8,30.15,WSW,249,0.0,8.0,67,0.00,,---,0.00,VWS V14.01,2013-03-04 15:34:00,
2013-03-04 10:39:00,26.4,16.9,30.15,ENE,70,0.0,8.0,67,0.00,,---,0.00,VWS V14.01,2013-03-04 15:39:00,
2013-03-04 10:40:00,29.6,17.8,30.14,SSW,192,3.0,7.0,61,0.00,,---,0.00,VWS V14.01,2013-03-04 15:40:00,
2013-03-04 10:44:00,26.6,16.8,30.15,SSE,148,0.0,5.0,66,0.00,,---,0.00,VWS V14.01,2013-03-04 15:44:00,
2013-03-04 10:49:00,27.0,17.2,30.15,SSE,161,0.0,5.0,66,0.00,,---,0.00,VWS V14.01,2013-03-04 15:49:00,
2013-03-04 10:50:00,29.5,17.7,30.13,SW,224,4.0,10.0,61,0.00,,---,0.00,VWS V14.01,2013-03-04 15:50:00,
2013-03-04 10:54:00,27.2,16.6,30.15,NNE,32,2.0,7.0,64,0.00,,---,0.00,VWS V14.01,2013-03-04 15:54:00,
2013-03-04 10:59:00,27.5,16.9,30.15,ESE,121,1.0,7.0,64,0.00,,---,0.00,VWS V14.01,2013-03-04 15:59:00,
2013-03-04 11:00:00,30.7,18.5,30.13,ENE,76,1.0,9.0,60,0.00,,---,0.00,VWS V14.01,2013-03-04 16:00:00,
2013-03-04 11:04:00,27.8,17.6,30.15,SE,142,1.0,6.0,65,0.00,,---,0.00,VWS V14.01,2013-03-04 16:04:00,
2013-03-04 11:09:00,27.8,16.9,30.15,WSW,252,1.0,6.0,63,0.00,,---,0.00,VWS V14.01,2013-03-04 16:09:00,
2013-03-04 11:10:00,30.9,18.7,30.13,ENE,71,3.0,10.0,60,0.00,,---,0.00,VWS V14.01,2013-03-04 16:10:00,
2013-03-04 11:14:00,27.9,16.6,30.15,SSW,196,3.0,11.0,62,0.00,,---,0.00,VWS V14.01,2013-03-04 16:14:00,
2013-03-04 11:19:00,28.3,17.0,30.15,WSW,253,10.0,11.0,62,0.00,,---,0.00,VWS V14.01,2013-03-04 16:19:00,
2013-03-04 11:20:00,31.3,19.4,30.12,South,184,9.0,9.0,61,0.00,,---,0.00,VWS V14.01,2013-03-04 16:20:00,
2013-03-04 11:24:00,28.5,17.5,30.15,West,266,0.0,11.0,63,0.00,,---,0.00,VWS V14.01,2013-03-04 16:24:00,
2013-03-04 11:29:00,29.0,17.6,30.14,SW,226,1.0,11.0,62,0.00,,---,0.00,VWS V14.01,2013-03-04 16:29:00,
2013-03-04 11:30:00,31.3,17.9,30.12,WNW,296,12.0,13.0,57,0.00,,---,0.00,VWS V14.01,2013-03-04 16:30:00,
2013-03-04 11:34:00,29.6,17.8,30.14,NE,36,3.0,5.0,61,0.00,,---,0.00,VWS V14.01,2013-03-04 16:34:00,
2013-03-04 11:39:00,29.6,17.8,30.14,SSW,192,3.0,7.0,61,0.00,,---,0.00,VWS V14.01,2013-03-04 16:39:00,
2013-03-04 11:40:00,31.5,18.0,30.12,West,262,6.0,13.0,57,0.00,,---,0.00,VWS V14.01,2013-03-04 16:40:00,
2013-03-04 11:44:00,29.3,16.8,30.14,ENE,66,1.0,8.0,59,0.00,,---,0.00,VWS V14.01,2013-03-04 16:44:00,
2013-03-04 11:49:00,29.5,18.5,30.13,NNE,26,1.0,4.0,63,0.00,,---,0.00,VWS V14.01,2013-03-04 16:49:00,
2013-03-04 11:50:00,32.8,20.5,30.11,WSW,250,6.0,8.0,60,0.00,,---,0.00,VWS V14.01,2013-03-04 16:50:00,
2013-03-04 11:54:00,30.4,19.0,30.13,WSW,253,5.0,9.0,62,0.00,,---,0.00,VWS V14.01,2013-03-04 16:54:00,
2013-03-04 11:59:00,30.7,18.5,30.13,SSW,192,4.0,4.0,60,0.00,,---,0.00,VWS V14.01,2013-03-04 16:59:00,
2013-03-04 12:00:00,33.4,19.0,30.10,ESE,105,4.0,9.0,55,0.00,,---,0.00,VWS V14.01,2013-03-04 17:00:00,
2013-03-04 12:04:00,30.7,18.5,30.13,NW,309,1.0,10.0,60,0.00,,---,0.00,VWS V14.01,2013-03-04 17:04:00,
2013-03-04 12:09:00,30.9,18.7,30.13,SE,146,5.0,7.0,60,0.00,,---,0.00,VWS V14.01,2013-03-04 17:09:00,
2013-03-04 12:10:00,33.8,19.4,30.10,NW,306,4.0,12.0,55,0.00,,---,0.00,VWS V14.01,2013-03-04 17:10:00,
2013-03-04 12:14:00,30.7,17.7,30.13,ESE,114,1.0,7.0,58,0.00,,---,0.00,VWS V14.01,2013-03-04 17:14:00,
2013-03-04 12:19:00,31.3,19.4,30.12,SW,236,6.0,9.0,61,0.00,,---,0.00,VWS V14.01,2013-03-04 17:19:00,
2013-03-04 12:20:00,34.2,19.7,30.10,NE,43,4.0,15.0,55,0.00,,---,0.00,VWS V14.01,2013-03-04 17:20:00,
2013-03-04 12:24:00,31.3,18.2,30.12,WSW,237,7.0,13.0,58,0.00,,---,0.00,VWS V14.01,2013-03-04 17:24:00,
2013-03-04 12:29:00,31.3,17.4,30.12,NW,315,7.0,13.0,56,0.00,,---,0.00,VWS V14.01,2013-03-04 17:29:00,
2013-03-04 12:30:00,35.1,20.6,30.09,WNW,294,1.0,8.0,55,0.00,,---,0.00,VWS V14.01,2013-03-04 17:30:00,
2013-03-04 12:34:00,31.5,18.0,30.12,WSW,238,2.0,13.0,57,0.00,,---,0.00,VWS V14.01,2013-03-04 17:34:00,
2013-03-04 12:39:00,31.5,18.0,30.11,West,273,5.0,8.0,57,0.00,,---,0.00,VWS V14.01,2013-03-04 17:39:00,
2013-03-04 12:40:00,34.6,18.8,30.09,SW,234,3.0,12.0,52,0.00,,---,0.00,VWS V14.01,2013-03-04 17:40:00,
2013-03-04 12:44:00,31.5,18.0,30.11,SW,226,2.0,8.0,57,0.00,,---,0.00,VWS V14.01,2013-03-04 17:44:00,
2013-03-04 12:49:00,32.9,20.5,30.11,SW,218,8.0,8.0,60,0.00,,---,0.00,VWS V14.01,2013-03-04 17:49:00,
2013-03-04 12:50:00,34.5,19.1,30.09,SW,230,7.0,13.0,53,0.00,,---,0.00,VWS V14.01,2013-03-04 17:50:00,
2013-03-04 12:54:00,33.2,19.6,30.11,NNW,331,0.0,9.0,57,0.00,,---,0.00,VWS V14.01,2013-03-04 17:54:00,
2013-03-04 12:59:00,33.4,19.8,30.11,NW,306,9.0,9.0,57,0.00,,---,0.00,VWS V14.01,2013-03-04 17:59:00,
2013-03-04 13:00:00,34.3,19.0,30.08,ESE,104,2.0,12.0,53,0.00,,---,0.00,VWS V14.01,2013-03-04 18:00:00,
2013-03-04 13:05:00,33.6,19.6,30.10,West,259,3.0,12.0,56,0.00,,---,0.00,VWS V14.01,2013-03-04 18:05:00,
2013-03-04 13:10:00,33.7,18.4,30.10,WNW,300,4.0,7.0,53,0.00,,---,0.00,VWS V14.01,2013-03-04 18:10:00,
2013-03-04 13:15:00,33.9,19.9,30.10,ENE,67,3.0,9.0,56,0.00,,---,0.00,VWS V14.01,2013-03-04 18:15:00,
2013-03-04 13:20:00,34.2,19.7,30.10,West,276,1.0,4.0,55,0.00,,---,0.00,VWS V14.01,2013-03-04 18:20:00,
2013-03-04 13:25:00,34.3,18.1,30.10,WSW,248,1.0,7.0,51,0.00,,---,0.00,VWS V14.01,2013-03-04 18:25:00,
2013-03-04 13:29:00,35.1,20.6,30.09,WNW,294,1.0,8.0,55,0.00,,---,0.00,VWS V14.01,2013-03-04 18:29:00,
2013-03-04 13:30:00,35.2,19.8,30.09,ENE,58,2.0,2.0,53,0.00,,---,0.00,VWS V14.01,2013-03-04 18:30:00,
2013-03-04 13:31:00,35.2,19.4,30.09,WSW,246,4.0,8.0,52,0.00,,---,0.00,VWS V14.01,2013-03-04 18:31:00,
2013-03-04 13:36:00,35.0,19.2,30.09,WNW,289,5.0,12.0,52,0.00,,---,0.00,VWS V14.01,2013-03-04 18:36:00,
2013-03-04 13:40:00,36.5,19.6,30.08,West,260,3.0,9.0,50,0.00,,---,0.00,VWS V14.01,2013-03-04 18:40:00,
2013-03-04 13:41:00,34.5,19.6,30.09,West,259,3.0,7.0,54,0.00,,---,0.00,VWS V14.01,2013-03-04 18:41:00,
2013-03-04 13:46:00,34.6,18.8,30.09,NNW,327,3.0,13.0,52,0.00,,---,0.00,VWS V14.01,2013-03-04 18:46:00,
2013-03-04 13:50:00,36.6,18.8,30.08,ENE,76,1.0,11.0,48,0.00,,---,0.00,VWS V14.01,2013-03-04 18:50:00,
2013-03-04 13:51:00,34.5,19.6,30.09,ENE,57,3.0,8.0,54,0.00,,---,0.00,VWS V14.01,2013-03-04 18:51:00,
2013-03-04 13:56:00,34.5,19.1,30.09,NNE,16,7.0,8.0,53,0.00,,---,0.00,VWS V14.01,2013-03-04 18:56:00,
2013-03-04 14:00:00,36.9,20.0,30.08,West,276,2.0,8.0,50,0.00,,---,0.00,VWS V14.01,2013-03-04 19:00:00,
2013-03-04 14:01:00,34.1,18.8,30.09,SW,225,1.0,7.0,53,0.00,,---,0.00,VWS V14.01,2013-03-04 19:01:00,
2013-03-04 14:06:00,34.1,18.3,30.09,ESE,117,2.0,11.0,52,0.00,,---,0.00,VWS V14.01,2013-03-04 19:06:00,
2013-03-04 14:10:00,37.3,19.4,30.07,SSW,206,4.0,8.0,48,0.00,,---,0.00,VWS V14.01,2013-03-04 19:10:00,
2013-03-04 14:11:00,34.6,20.1,30.08,ENE,63,3.0,6.0,55,0.00,,---,0.00,VWS V14.01,2013-03-04 19:11:00,
2013-03-04 14:16:00,35.4,20.4,30.08,NNW,336,6.0,8.0,54,0.00,,---,0.00,VWS V14.01,2013-03-04 19:16:00,
2013-03-04 14:20:00,37.4,19.5,30.07,NW,323,2.0,11.0,48,0.00,,---,0.00,VWS V14.01,2013-03-04 19:20:00,
2013-03-04 14:21:00,35.9,20.5,30.08,NNE,32,2.0,7.0,53,0.00,,---,0.00,VWS V14.01,2013-03-04 19:21:00,
2013-03-04 14:26:00,36.0,19.6,30.08,NNE,28,4.0,8.0,51,0.00,,---,0.00,VWS V14.01,2013-03-04 19:26:00,
2013-03-04 14:30:00,38.0,20.5,30.07,West,264,5.0,12.0,49,0.00,,---,0.00,VWS V14.01,2013-03-04 19:30:00,
2013-03-04 14:31:00,36.1,19.7,30.08,SE,145,1.0,9.0,51,0.00,,---,0.00,VWS V14.01,2013-03-04 19:31:00,
2013-03-04 14:36:00,36.5,20.6,30.08,SW,227,1.0,9.0,52,0.00,,---,0.00,VWS V14.01,2013-03-04 19:36:00,
2013-03-04 14:40:00,38.0,19.1,30.07,WNW,290,3.0,9.0,46,0.00,,---,0.00,VWS V14.01,2013-03-04 19:40:00,
2013-03-04 14:41:00,36.5,19.6,30.08,ESE,121,1.0,5.0,50,0.00,,---,0.00,VWS V14.01,2013-03-04 19:41:00,
2013-03-04 14:46:00,36.9,20.9,30.08,West,267,4.0,11.0,52,0.00,,---,0.00,VWS V14.01,2013-03-04 19:46:00,
2013-03-04 14:50:00,38.4,20.4,30.07,ESE,103,5.0,9.0,48,0.00,,---,0.00,VWS V14.01,2013-03-04 19:50:00,
2013-03-04 14:51:00,36.6,20.2,30.08,SE,130,5.0,6.0,51,0.00,,---,0.00,VWS V14.01,2013-03-04 19:51:00,
2013-03-04 14:56:00,36.8,19.9,30.08,ENE,67,2.0,8.0,50,0.00,,---,0.00,VWS V14.01,2013-03-04 19:56:00,
2013-03-04 15:00:00,38.5,19.5,30.07,ENE,74,1.0,7.0,46,0.00,,---,0.00,VWS V14.01,2013-03-04 20:00:00,
2013-03-04 15:01:00,37.1,19.7,30.08,NNE,31,2.0,7.0,49,0.00,,---,0.00,VWS V14.01,2013-03-04 20:01:00,
2013-03-04 15:06:00,37.5,19.6,30.08,WSW,241,4.0,7.0,48,0.00,,---,0.00,VWS V14.01,2013-03-04 20:06:00,
2013-03-04 15:10:00,38.4,19.9,30.07,West,265,5.0,11.0,47,0.00,,---,0.00,VWS V14.01,2013-03-04 20:10:00,
2013-03-04 15:12:00,37.4,20.5,30.07,WSW,241,9.0,9.0,50,0.00,,---,0.00,VWS V14.01,2013-03-04 20:12:00,
2013-03-04 15:17:00,37.5,20.1,30.07,NE,36,2.0,11.0,49,0.00,,---,0.00,VWS V14.01,2013-03-04 20:17:00,
2013-03-04 15:20:00,38.5,19.5,30.07,WSW,248,3.0,8.0,46,0.00,,---,0.00,VWS V14.01,2013-03-04 20:20:00,
2013-03-04 15:22:00,37.3,19.4,30.07,WSW,257,4.0,8.0,48,0.00,,---,0.00,VWS V14.01,2013-03-04 20:22:00,
2013-03-04 15:27:00,37.6,21.1,30.07,NE,44,1.0,8.0,51,0.00,,---,0.00,VWS V14.01,2013-03-04 20:27:00,
2013-03-04 15:30:00,38.5,19.5,30.06,SW,232,2.0,12.0,46,0.00,,---,0.00,VWS V14.01,2013-03-04 20:30:00,
2013-03-04 15:32:00,38.1,20.2,30.07,NE,53,2.0,5.0,48,0.00,,---,0.00,VWS V14.01,2013-03-04 20:32:00,
2013-03-04 15:37:00,38.0,19.6,30.07,SSE,149,2.0,7.0,47,0.00,,---,0.00,VWS V14.01,2013-03-04 20:37:00,
2013-03-04 15:40:00,38.2,18.2,30.07,WNW,290,1.0,10.0,44,0.00,,---,0.00,VWS V14.01,2013-03-04 20:40:00,
2013-03-04 15:42:00,37.8,18.9,30.07,SW,230,3.0,6.0,46,0.00,,---,0.00,VWS V14.01,2013-03-04 20:42:00,
2013-03-04 15:47:00,38.2,20.2,30.07,South,190,3.0,9.0,48,0.00,,---,0.00,VWS V14.01,2013-03-04 20:47:00,
2013-03-04 15:50:00,38.2,18.8,30.07,SSE,148,2.0,10.0,45,0.00,,---,0.00,VWS V14.01,2013-03-04 20:50:00,
2013-03-04 15:52:00,38.4,20.4,30.07,SW,232,2.0,7.0,48,0.00,,---,0.00,VWS V14.01,2013-03-04 20:52:00,
2013-03-04 15:57:00,38.6,20.6,30.07,NW,325,3.0,7.0,48,0.00,,---,0.00,VWS V14.01,2013-03-04 20:57:00,
2013-03-04 16:00:00,38.4,18.9,30.06,ENE,65,7.0,7.0,45,0.00,,---,0.00,VWS V14.01,2013-03-04 21:00:00,
2013-03-04 16:02:00,38.3,18.8,30.07,WNW,295,4.0,11.0,45,0.00,,---,0.00,VWS V14.01,2013-03-04 21:02:00,
2013-03-04 16:07:00,38.2,19.8,30.07,ESE,120,1.0,11.0,47,0.00,,---,0.00,VWS V14.01,2013-03-04 21:07:00,
2013-03-04 16:10:00,38.3,18.8,30.06,ENE,63,1.0,7.0,45,0.00,,---,0.00,VWS V14.01,2013-03-04 21:10:00,
2013-03-04 16:12:00,38.4,19.9,30.07,WSW,252,4.0,5.0,47,0.00,,---,0.00,VWS V14.01,2013-03-04 21:12:00,
2013-03-04 16:17:00,38.4,19.4,30.06,West,263,1.0,8.0,46,0.00,,---,0.00,VWS V14.01,2013-03-04 21:17:00,
2013-03-04 16:20:00,38.0,18.6,30.07,West,265,0.0,9.0,45,0.00,,---,0.00,VWS V14.01,2013-03-04 21:20:00,
2013-03-04 16:22:00,38.5,19.5,30.06,SSE,159,2.0,6.0,46,0.00,,---,0.00,VWS V14.01,2013-03-04 21:22:00,
2013-03-04 16:27:00,38.5,19.5,30.07,SSW,200,1.0,12.0,46,0.00,,---,0.00,VWS V14.01,2013-03-04 21:27:00,
2013-03-04 16:30:00,37.5,18.1,30.07,WNW,302,5.0,10.0,45,0.00,,---,0.00,VWS V14.01,2013-03-04 21:30:00,
2013-03-04 16:32:00,38.5,19.0,30.06,West,279,5.0,9.0,45,0.00,,---,0.00,VWS V14.01,2013-03-04 21:32:00,
2013-03-04 16:37:00,38.4,19.4,30.07,North,355,9.0,10.0,46,0.00,,---,0.00,VWS V14.01,2013-03-04 21:37:00,
2013-03-04 16:40:00,37.1,18.2,30.07,WNW,302,0.0,8.0,46,0.00,,---,0.00,VWS V14.01,2013-03-04 21:40:00,
2013-03-04 16:42:00,38.2,19.3,30.07,WNW,283,8.0,8.0,46,0.00,,---,0.00,VWS V14.01,2013-03-04 21:42:00,
2013-03-04 16:47:00,38.2,19.3,30.07,WSW,254,1.0,10.0,46,0.00,,---,0.00,VWS V14.01,2013-03-04 21:47:00,
2013-03-04 16:50:00,36.5,18.2,30.07,NW,313,0.0,4.0,47,0.00,,---,0.00,VWS V14.01,2013-03-04 21:50:00,
2013-03-04 16:52:00,38.2,19.3,30.07,WSW,245,0.0,7.0,46,0.00,,---,0.00,VWS V14.01,2013-03-04 21:52:00,
2013-03-04 16:57:00,38.2,18.8,30.06,ESE,120,0.0,7.0,45,0.00,,---,0.00,VWS V14.01,2013-03-04 21:57:00,
2013-03-04 17:00:00,35.9,18.1,30.08,SE,134,0.0,7.0,48,0.00,,---,0.00,VWS V14.01,2013-03-04 22:00:00,
2013-03-04 17:02:00,38.3,18.8,30.07,SW,236,1.0,7.0,45,0.00,,---,0.00,VWS V14.01,2013-03-04 22:02:00,
2013-03-04 17:07:00,38.4,19.4,30.06,SW,222,2.0,7.0,46,0.00,,---,0.00,VWS V14.01,2013-03-04 22:07:00,
2013-03-04 17:10:00,35.3,18.5,30.08,ENE,78,0.0,4.0,50,0.00,,---,0.00,VWS V14.01,2013-03-04 22:10:00,
2013-03-04 17:12:00,38.3,19.4,30.06,NW,306,9.0,9.0,46,0.00,,---,0.00,VWS V14.01,2013-03-04 22:12:00,
2013-03-04 17:17:00,38.1,18.6,30.07,West,261,2.0,9.0,45,0.00,,---,0.00,VWS V14.01,2013-03-04 22:17:00,
2013-03-04 17:20:00,34.5,18.2,30.08,West,264,0.0,2.0,51,0.00,,---,0.00,VWS V14.01,2013-03-04 22:20:00,
2013-03-04 17:22:00,37.8,18.4,30.07,WNW,291,7.0,10.0,45,0.00,,---,0.00,VWS V14.01,2013-03-04 22:22:00,
2013-03-04 17:27:00,37.6,18.2,30.07,WNW,302,6.0,10.0,45,0.00,,---,0.00,VWS V14.01,2013-03-04 22:27:00,
2013-03-04 17:30:00,33.7,18.4,30.08,NNE,15,0.0,1.0,53,0.00,,---,0.00,VWS V14.01,2013-03-04 22:30:00,
2013-03-04 17:32:00,37.4,18.0,30.07,NW,315,3.0,7.0,45,0.00,,---,0.00,VWS V14.01,2013-03-04 22:32:00,
2013-03-04 17:37:00,37.2,17.8,30.07,West,276,1.0,8.0,45,0.00,,---,0.00,VWS V14.01,2013-03-04 22:37:00,
2013-03-04 17:40:00,32.8,18.4,30.08,NW,304,0.0,1.0,55,0.00,,---,0.00,VWS V14.01,2013-03-04 22:40:00,
2013-03-04 17:42:00,36.9,18.1,30.08,WNW,286,3.0,4.0,46,0.00,,---,0.00,VWS V14.01,2013-03-04 22:42:00,
2013-03-04 17:47:00,36.6,18.3,30.08,ENE,67,2.0,4.0,47,0.00,,---,0.00,VWS V14.01,2013-03-04 22:47:00,
2013-03-04 17:50:00,32.1,18.2,30.08,NW,304,0.0,0.0,56,0.00,,---,0.00,VWS V14.01,2013-03-04 22:50:00,
2013-03-04 17:52:00,36.4,18.1,30.08,WSW,242,1.0,7.0,47,0.00,,---,0.00,VWS V14.01,2013-03-04 22:52:00,
2013-03-04 17:57:00,36.1,18.3,30.08,NW,309,0.0,7.0,48,0.00,,---,0.00,VWS V14.01,2013-03-04 22:57:00,
2013-03-04 18:00:00,31.6,18.1,30.09,NW,304,0.0,0.0,57,0.00,,---,0.00,VWS V14.01,2013-03-04 23:00:00,
2013-03-04 18:02:00,35.7,18.4,30.08,SE,134,0.0,4.0,49,0.00,,---,0.00,VWS V14.01,2013-03-04 23:02:00,
2013-03-04 18:07:00,35.4,18.1,30.08,SE,141,1.0,4.0,49,0.00,,---,0.00,VWS V14.01,2013-03-04 23:07:00,
2013-03-04 18:10:00,31.2,18.2,30.09,NW,304,0.0,0.0,58,0.00,,---,0.00,VWS V14.01,2013-03-04 23:10:00,
2013-03-04 18:12:00,35.0,18.2,30.08,NE,55,0.0,2.0,50,0.00,,---,0.00,VWS V14.01,2013-03-04 23:12:00,
2013-03-04 18:17:00,34.7,18.4,30.08,West,264,0.0,2.0,51,0.00,,---,0.00,VWS V14.01,2013-03-04 23:17:00,
2013-03-04 18:20:00,30.8,18.2,30.09,NW,304,0.0,0.0,59,0.00,,---,0.00,VWS V14.01,2013-03-04 23:20:00,
2013-03-04 18:22:00,34.2,18.4,30.08,SW,235,0.0,1.0,52,0.00,,---,0.00,VWS V14.01,2013-03-04 23:22:00,
2013-03-04 18:27:00,33.8,18.5,30.08,WSW,238,0.0,1.0,53,0.00,,---,0.00,VWS V14.01,2013-03-04 23:27:00,
2013-03-04 18:30:00,30.3,18.1,30.09,NW,304,0.0,0.0,60,0.00,,---,0.00,VWS V14.01,2013-03-04 23:30:00,
2013-03-04 18:32:00,33.4,18.6,30.08,NNW,333,0.0,1.0,54,0.00,,---,0.00,VWS V14.01,2013-03-04 23:32:00,
2013-03-04 18:37:00,33.0,18.2,30.08,NW,304,0.0,1.0,54,0.00,,---,0.00,VWS V14.01,2013-03-04 23:37:00,
2013-03-04 18:40:00,30.2,18.4,30.09,NW,304,0.0,0.0,61,0.00,,---,0.00,VWS V14.01,2013-03-04 23:40:00,
2013-03-04 18:42:00,32.5,18.6,30.08,NW,304,0.0,0.0,56,0.00,,---,0.00,VWS V14.01,2013-03-04 23:42:00,
2013-03-04 18:47:00,32.2,18.3,30.08,NW,304,0.0,0.0,56,0.00,,---,0.00,VWS V14.01,2013-03-04 23:47:00,
2013-03-04 18:50:00,29.3,18.6,30.09,NW,304,0.0,0.0,64,0.00,,---,0.00,VWS V14.01,2013-03-04 23:50:00,
2013-03-04 18:52:00,31.9,18.0,30.09,NW,304,0.0,0.0,56,0.00,,---,0.00,VWS V14.01,2013-03-04 23:52:00,
2013-03-04 18:57:00,31.7,18.2,30.09,NW,304,0.0,0.0,57,0.00,,---,0.00,VWS V14.01,2013-03-04 23:57:00,
2013-03-04 19:00:00,28.1,18.9,30.09,NW,304,0.0,0.0,68,0.00,,---,0.00,VWS V14.01,2013-03-05 00:00:00,
2013-03-04 19:03:00,31.5,18.4,30.09,NW,304,0.0,0.0,58,0.00,,---,0.00,VWS V14.01,2013-03-05 00:03:00,
2013-03-04 19:08:00,31.3,18.2,30.09,NW,304,0.0,0.0,58,0.00,,---,0.00,VWS V14.01,2013-03-05 00:08:00,
2013-03-04 19:10:00,28.0,20.2,30.09,NW,304,0.0,0.0,72,0.00,,---,0.00,VWS V14.01,2013-03-05 00:10:00,
2013-03-04 19:13:00,31.0,18.0,30.09,NW,304,0.0,0.0,58,0.00,,---,0.00,VWS V14.01,2013-03-05 00:13:00,
2013-03-04 19:18:00,30.8,18.2,30.08,NW,304,0.0,0.0,59,0.00,,---,0.00,VWS V14.01,2013-03-05 00:18:00,
2013-03-04 19:20:00,27.5,19.7,30.09,NW,304,0.0,0.0,72,0.00,,---,0.00,VWS V14.01,2013-03-05 00:20:00,
2013-03-04 19:23:00,30.6,18.0,30.09,NW,304,0.0,0.0,59,0.00,,---,0.00,VWS V14.01,2013-03-05 00:23:00,
2013-03-04 19:28:00,30.4,18.2,30.08,NW,304,0.0,0.0,60,0.00,,---,0.00,VWS V14.01,2013-03-05 00:28:00,
2013-03-04 19:30:00,26.6,19.4,30.09,NW,304,0.0,0.0,74,0.00,,---,0.00,VWS V14.01,2013-03-05 00:30:00,
2013-03-04 19:33:00,30.3,18.1,30.09,NW,304,0.0,0.0,60,0.00,,---,0.00,VWS V14.01,2013-03-05 00:33:00,
2013-03-04 19:38:00,30.2,18.4,30.09,NW,304,0.0,0.0,61,0.00,,---,0.00,VWS V14.01,2013-03-05 00:38:00,
2013-03-04 19:40:00,26.1,19.0,30.09,NW,304,0.0,0.0,74,0.00,,---,0.00,VWS V14.01,2013-03-05 00:40:00,
2013-03-04 19:43:00,30.0,18.2,30.09,NW,304,0.0,0.0,61,0.00,,---,0.00,VWS V14.01,2013-03-05 00:43:00,
2013-03-04 19:48:00,29.4,18.4,30.09,NW,304,0.0,0.0,63,0.00,,---,0.00,VWS V14.01,2013-03-05 00:48:00,
2013-03-04 19:50:00,26.1,19.9,30.09,NW,304,0.0,0.0,77,0.00,,---,0.00,VWS V14.01,2013-03-05 00:50:00,
2013-03-04 19:53:00,28.8,18.5,30.09,NW,304,0.0,0.0,65,0.00,,---,0.00,VWS V14.01,2013-03-05 00:53:00,
2013-03-04 19:58:00,28.2,18.7,30.09,NW,304,0.0,0.0,67,0.00,,---,0.00,VWS V14.01,2013-03-05 00:58:00,
2013-03-04 20:00:00,25.6,19.4,30.09,NW,304,0.0,0.0,77,0.00,,---,0.00,VWS V14.01,2013-03-05 01:00:00,
2013-03-04 20:03:00,28.0,19.8,30.09,NW,304,0.0,0.0,71,0.00,,---,0.00,VWS V14.01,2013-03-05 01:03:00,
2013-03-04 20:08:00,27.9,20.1,30.09,NW,304,0.0,0.0,72,0.00,,---,0.00,VWS V14.01,2013-03-05 01:08:00,
2013-03-04 20:10:00,25.0,19.4,30.09,NW,304,0.0,0.0,79,0.00,,---,0.00,VWS V14.01,2013-03-05 01:10:00,
2013-03-04 20:13:00,27.9,20.1,30.09,NW,304,0.0,0.0,72,0.00,,---,0.00,VWS V14.01,2013-03-05 01:13:00,
2013-03-04 20:18:00,27.6,19.8,30.09,NW,304,0.0,0.0,72,0.00,,---,0.00,VWS V14.01,2013-03-05 01:18:00,
2013-03-04 20:20:00,24.7,19.7,30.09,NW,304,0.0,0.0,81,0.00,,---,0.00,VWS V14.01,2013-03-05 01:20:00,
2013-03-04 20:23:00,27.1,19.0,30.09,NW,304,0.0,0.0,71,0.00,,---,0.00,VWS V14.01,2013-03-05 01:23:00,
2013-03-04 20:28:00,26.7,19.5,30.09,NW,304,0.0,0.0,74,0.00,,---,0.00,VWS V14.01,2013-03-05 01:28:00,
2013-03-04 20:30:00,24.6,19.6,30.09,NW,304,0.0,0.0,81,0.00,,---,0.00,VWS V14.01,2013-03-05 01:30:00,
2013-03-04 20:33:00,26.5,19.4,30.09,NW,304,0.0,0.0,74,0.00,,---,0.00,VWS V14.01,2013-03-05 01:33:00,
2013-03-04 20:38:00,26.1,19.0,30.09,NW,304,0.0,0.0,74,0.00,,---,0.00,VWS V14.01,2013-03-05 01:38:00,
2013-03-04 20:40:00,23.6,18.6,30.09,NW,304,0.0,0.0,81,0.00,,---,0.00,VWS V14.01,2013-03-05 01:40:00,
2013-03-04 20:43:00,26.0,19.5,30.09,NW,304,0.0,0.0,76,0.00,,---,0.00,VWS V14.01,2013-03-05 01:43:00,
2013-03-04 20:48:00,26.1,19.9,30.09,NW,304,0.0,0.0,77,0.00,,---,0.00,VWS V14.01,2013-03-05 01:48:00,
2013-03-04 20:50:00,23.5,19.4,30.09,NW,304,0.0,0.0,84,0.00,,---,0.00,VWS V14.01,2013-03-05 01:50:00,
2013-03-04 20:53:00,26.0,19.8,30.09,NW,304,0.0,0.0,77,0.00,,---,0.00,VWS V14.01,2013-03-05 01:53:00,
2013-03-04 20:58:00,25.7,19.5,30.09,NW,304,0.0,0.0,77,0.00,,---,0.00,VWS V14.01,2013-03-05 01:58:00,
2013-03-04 21:00:00,23.5,19.1,30.09,NW,304,0.0,0.0,83,0.00,,---,0.00,VWS V14.01,2013-03-05 02:00:00,
2013-03-04 21:03:00,25.3,19.4,30.09,NW,304,0.0,0.0,78,0.00,,---,0.00,VWS V14.01,2013-03-05 02:03:00,
2013-03-04 21:08:00,25.0,19.4,30.09,NW,304,0.0,0.0,79,0.00,,---,0.00,VWS V14.01,2013-03-05 02:08:00,
2013-03-04 21:10:00,22.8,19.0,30.09,NW,304,0.0,0.0,85,0.00,,---,0.00,VWS V14.01,2013-03-05 02:10:00,
2013-03-04 21:13:00,24.8,19.5,30.09,NW,304,0.0,0.0,80,0.00,,---,0.00,VWS V14.01,2013-03-05 02:13:00,
2013-03-04 21:18:00,24.7,19.7,30.09,NW,304,0.0,0.0,81,0.00,,---,0.00,VWS V14.01,2013-03-05 02:18:00,
2013-03-04 21:20:00,22.8,19.2,30.10,NW,304,0.0,0.0,86,0.00,,---,0.00,VWS V14.01,2013-03-05 02:20:00,
2013-03-04 21:23:00,24.8,19.8,30.09,NW,304,0.0,0.0,81,0.00,,---,0.00,VWS V14.01,2013-03-05 02:23:00,
2013-03-04 21:28:00,24.7,19.7,30.09,NW,304,0.0,0.0,81,0.00,,---,0.00,VWS V14.01,2013-03-05 02:28:00,
2013-03-04 21:30:00,23.1,19.3,30.09,NW,304,0.0,0.0,85,0.00,,---,0.00,VWS V14.01,2013-03-05 02:30:00,
2013-03-04 21:33:00,24.2,18.9,30.09,NW,304,0.0,0.0,80,0.00,,---,0.00,VWS V14.01,2013-03-05 02:33:00,
2013-03-04 21:38:00,23.7,18.7,30.09,NW,304,0.0,0.0,81,0.00,,---,0.00,VWS V14.01,2013-03-05 02:38:00,
2013-03-04 21:40:00,22.7,18.6,30.09,NW,304,0.0,0.0,84,0.00,,---,0.00,VWS V14.01,2013-03-05 02:40:00,
2013-03-04 21:43:00,23.5,19.1,30.09,NW,304,0.0,0.0,83,0.00,,---,0.00,VWS V14.01,2013-03-05 02:43:00,
2013-03-04 21:48:00,23.5,19.4,30.09,NW,304,0.0,0.0,84,0.00,,---,0.00,VWS V14.01,2013-03-05 02:48:00,
2013-03-04 21:50:00,22.1,18.0,30.10,NW,304,0.0,0.0,84,0.00,,---,0.00,VWS V14.01,2013-03-05 02:50:00,
2013-03-04 21:53:00,23.6,19.5,30.09,NW,304,0.0,0.0,84,0.00,,---,0.00,VWS V14.01,2013-03-05 02:53:00,
2013-03-04 21:58:00,23.5,19.1,30.09,NW,304,0.0,0.0,83,0.00,,---,0.00,VWS V14.01,2013-03-05 02:58:00,
2013-03-04 22:00:00,23.4,19.8,30.10,NW,304,0.0,0.0,86,0.00,,---,0.00,VWS V14.01,2013-03-05 03:00:00,
2013-03-04 22:03:00,23.1,19.0,30.09,NW,304,0.0,0.0,84,0.00,,---,0.00,VWS V14.01,2013-03-05 03:03:00,
2013-03-04 22:08:00,22.8,19.0,30.09,NW,304,0.0,0.0,85,0.00,,---,0.00,VWS V14.01,2013-03-05 03:08:00,
2013-03-04 22:10:00,23.5,19.4,30.10,NW,304,0.0,0.0,84,0.00,,---,0.00,VWS V14.01,2013-03-05 03:10:00,
2013-03-04 22:13:00,22.8,19.2,30.09,NW,304,0.0,0.0,86,0.00,,---,0.00,VWS V14.01,2013-03-05 03:13:00,
2013-03-04 22:18:00,22.8,19.2,30.10,NW,304,0.0,0.0,86,0.00,,---,0.00,VWS V14.01,2013-03-05 03:18:00,
2013-03-04 22:20:00,23.3,19.5,30.10,NW,304,0.0,0.0,85,0.00,,---,0.00,VWS V14.01,2013-03-05 03:20:00,
2013-03-04 22:23:00,23.0,19.5,30.09,NW,304,0.0,0.0,86,0.00,,---,0.00,VWS V14.01,2013-03-05 03:23:00,
2013-03-04 22:28:00,23.1,19.3,30.09,NW,304,0.0,0.0,85,0.00,,---,0.00,VWS V14.01,2013-03-05 03:28:00,
2013-03-04 22:30:00,22.9,19.1,30.10,NW,304,0.0,0.0,85,0.00,,---,0.00,VWS V14.01,2013-03-05 03:30:00,
2013-03-04 22:33:00,23.0,18.9,30.09,NW,304,0.0,0.0,84,0.00,,---,0.00,VWS V14.01,2013-03-05 03:33:00,
2013-03-04 22:38:00,22.7,18.6,30.09,NW,304,0.0,0.0,84,0.00,,---,0.00,VWS V14.01,2013-03-05 03:38:00,
2013-03-04 22:40:00,22.4,18.9,30.10,NW,304,0.0,0.0,86,0.00,,---,0.00,VWS V14.01,2013-03-05 03:40:00,
2013-03-04 22:43:00,22.4,18.3,30.09,NW,304,0.0,0.0,84,0.00,,---,0.00,VWS V14.01,2013-03-05 03:43:00,
2013-03-04 22:48:00,22.1,18.0,30.10,NW,304,0.0,0.0,84,0.00,,---,0.00,VWS V14.01,2013-03-05 03:48:00,
2013-03-04 22:50:00,22.3,18.8,30.10,NW,304,0.0,0.0,86,0.00,,---,0.00,VWS V14.01,2013-03-05 03:50:00,
2013-03-04 22:53:00,22.5,19.0,30.10,NW,304,0.0,0.0,86,0.00,,---,0.00,VWS V14.01,2013-03-05 03:53:00,
2013-03-04 22:58:00,23.3,19.7,30.10,NW,304,0.0,0.0,86,0.00,,---,0.00,VWS V14.01,2013-03-05 03:58:00,
2013-03-04 23:00:00,23.3,19.2,30.10,NW,304,0.0,0.0,84,0.00,,---,0.00,VWS V14.01,2013-03-05 04:00:00,
2013-03-04 23:03:00,23.6,19.5,30.10,NW,304,0.0,0.0,84,0.00,,---,0.00,VWS V14.01,2013-03-05 04:03:00,
2013-03-04 23:08:00,23.6,19.5,30.10,NW,304,0.0,0.0,84,0.00,,---,0.00,VWS V14.01,2013-03-05 04:08:00,
2013-03-04 23:13:00,23.4,19.6,30.10,NW,304,0.0,0.0,85,0.00,,---,0.00,VWS V14.01,2013-03-05 04:13:00,
2013-03-04 23:18:00,23.3,19.5,30.10,NW,304,0.0,0.0,85,0.00,,---,0.00,VWS V14.01,2013-03-05 04:18:00,
2013-03-04 23:23:00,23.2,19.4,30.10,NW,304,0.0,0.0,85,0.00,,---,0.00,VWS V14.01,2013-03-05 04:23:00,
2013-03-04 23:29:00,23.0,19.2,30.10,NW,304,0.0,0.0,85,0.00,,---,0.00,VWS V14.01,2013-03-05 04:29:00,
2013-03-04 23:34:00,22.6,18.8,30.10,NW,304,0.0,0.0,85,0.00,,---,0.00,VWS V14.01,2013-03-05 04:34:00,
2013-03-04 23:39:00,22.4,18.6,30.10,NW,304,0.0,0.0,85,0.00,,---,0.00,VWS V14.01,2013-03-05 04:39:00,
2013-03-04 23:44:00,22.3,18.8,30.10,NW,304,0.0,0.0,86,0.00,,---,0.00,VWS V14.01,2013-03-05 04:44:00,
2013-03-04 23:49:00,22.3,18.8,30.10,NW,304,0.0,0.0,86,0.00,,---,0.00,VWS V14.01,2013-03-05 04:49:00,
2013-03-04 23:54:00,22.9,19.4,30.10,NW,304,0.0,0.0,86,0.00,,---,0.00,VWS V14.01,2013-03-05 04:54:00,
2013-03-04 23:59:00,23.3,19.2,30.10,NW,304,0.0,0.0,84,0.00,,---,0.00,VWS V14.01,2013-03-05 04:59:00,